createdAt,value
2022-11-29T04:18:29.551Z,6.69
2022-11-29T04:21:56.253Z,6.68
2022-11-29T04:25:33.105Z,6.67
2022-11-29T04:29:07.878Z,6.66
2022-11-29T04:32:35.137Z,6.60
2022-11-29T04:36:07.554Z,6.56
2022-11-29T04:39:30.275Z,6.50
2022-11-29T04:42:55.808Z,6.45
2022-11-29T04:46:21.206Z,6.43
2022-11-29T04:49:50.722Z,6.39
2022-11-29T04:53:20.143Z,6.34
2022-11-29T04:56:37.150Z,6.27
2022-11-29T04:59:53.489Z,6.30
2022-11-29T05:03:12.534Z,6.31
2022-11-29T05:06:28.741Z,6.34
2022-11-29T05:10:01.427Z,6.32
2022-11-29T05:13:20.448Z,6.32
2022-11-29T05:16:46.453Z,6.35
2022-11-29T05:20:09.384Z,6.39
2022-11-29T05:23:31.461Z,6.41
2022-11-29T05:26:51.119Z,6.44
2022-11-29T05:30:07.036Z,6.47
2022-11-29T05:33:30.030Z,6.54
2022-11-29T05:36:44.735Z,6.56
2022-11-29T05:40:18.896Z,6.61
2022-11-29T05:43:46.387Z,6.62
2022-11-29T05:46:59.206Z,6.55
2022-11-29T05:50:17.181Z,6.53
2022-11-29T05:53:32.217Z,6.57
2022-11-29T05:56:49.572Z,6.62
2022-11-29T06:00:03.634Z,6.66
2022-11-29T07:57:41.359Z,7.20
2022-11-29T08:00:51.179Z,7.23
2022-11-29T08:04:00.890Z,7.29
2022-11-29T08:07:10.699Z,7.32
2022-11-29T08:10:20.323Z,7.34
2022-11-29T08:13:31.264Z,7.36
2022-11-29T08:16:40.924Z,7.42
2022-11-29T08:19:50.607Z,7.48
2022-11-29T08:23:00.708Z,7.53
2022-11-29T08:26:10.383Z,7.57
2022-11-29T08:29:21.492Z,7.60
2022-11-29T08:32:31.288Z,7.65
2022-11-29T08:35:42.102Z,7.66
2022-11-29T08:38:57.190Z,7.71
2022-11-29T08:42:11.376Z,7.75
2022-11-29T08:45:22.456Z,7.79
2022-11-29T08:48:32.118Z,7.85
2022-11-29T08:51:41.922Z,7.94
2022-11-29T08:54:50.602Z,7.99
2022-11-29T08:58:03.683Z,8.06
2022-11-29T09:01:16.933Z,8.11
2022-11-29T09:04:26.585Z,8.17
2022-11-29T09:07:36.259Z,8.24
2022-11-29T09:10:47.522Z,8.32
2022-11-29T09:13:59.589Z,8.39
2022-11-29T09:17:10.545Z,8.46
2022-11-29T09:20:20.124Z,8.53
2022-11-29T09:23:29.764Z,8.59
2022-11-29T09:26:42.099Z,8.70
2022-11-29T09:29:51.806Z,8.74
2022-11-29T09:33:04.843Z,8.82
2022-11-29T09:36:14.836Z,8.91
2022-11-29T09:39:24.774Z,8.95
2022-11-29T09:42:46.549Z,9.00
2022-11-29T09:46:03.246Z,9.01
2022-11-29T09:49:31.214Z,9.02
2022-11-29T09:52:52.883Z,9.06
2022-11-29T09:56:12.540Z,9.10
2022-11-29T09:59:27.433Z,9.10
2022-11-29T10:02:43.966Z,9.11
2022-11-29T10:05:59.912Z,9.13
2022-11-29T10:09:17.695Z,9.14
2022-11-29T10:12:35.282Z,9.18
2022-11-29T10:15:48.323Z,9.21
2022-11-29T10:19:05.585Z,9.25
2022-11-29T10:22:22.702Z,9.29
2022-11-29T10:25:37.041Z,9.31
2022-11-29T10:28:49.329Z,9.33
2022-11-29T10:32:10.091Z,9.29
2022-11-29T10:35:23.690Z,9.31
2022-11-29T10:38:34.619Z,9.28
2022-11-29T10:41:44.273Z,9.29
2022-11-29T10:44:54.041Z,9.30
2022-11-29T10:48:06.098Z,9.33
2022-11-29T10:51:17.993Z,9.32
2022-11-29T10:54:38.233Z,9.29
2022-11-29T10:58:10.275Z,9.27
2022-11-29T11:01:20.043Z,9.28
2022-11-29T11:04:34.121Z,9.29
2022-11-29T11:07:43.878Z,9.27
2022-11-29T11:11:01.232Z,9.24
2022-11-29T11:14:21.355Z,9.27
2022-11-29T11:17:33.005Z,9.26
2022-11-29T11:20:44.347Z,9.25
2022-11-29T11:23:57.717Z,9.26
2022-11-29T11:27:09.245Z,9.26
2022-11-29T11:30:23.281Z,9.24
2022-11-29T11:33:35.278Z,9.11
2022-11-29T11:36:44.880Z,9.11
2022-11-29T11:39:56.966Z,9.16
2022-11-29T11:43:20.248Z,9.22
2022-11-29T11:46:47.676Z,9.25
2022-11-29T11:50:08.887Z,9.25
2022-11-29T11:53:23.432Z,9.28
2022-11-29T11:56:36.486Z,9.20
2022-11-29T11:59:50.999Z,9.20
2022-11-29T12:03:01.870Z,9.27
2022-11-29T12:06:24.913Z,9.31
2022-11-29T12:09:40.607Z,9.39
2022-11-29T12:12:51.374Z,9.42
2022-11-29T12:16:08.872Z,9.43
2022-11-29T12:19:24.683Z,9.47
2022-11-29T12:22:45.261Z,9.48
2022-11-29T12:26:01.333Z,9.46
2022-11-29T12:29:14.463Z,9.42
2022-11-29T12:32:47.340Z,9.44
2022-11-29T12:36:10.736Z,9.43
2022-11-29T12:39:41.138Z,9.40
2022-11-29T12:42:58.286Z,9.35
2022-11-29T12:46:13.317Z,9.23
2022-11-29T12:49:31.797Z,9.21
2022-11-29T12:52:51.954Z,9.18
2022-11-29T12:56:13.876Z,9.18
2022-11-29T12:59:36.444Z,9.19
2022-11-29T13:02:57.167Z,9.10
2022-11-29T13:06:22.342Z,8.91
2022-11-29T13:09:55.254Z,8.73
2022-11-29T13:13:20.001Z,8.70
2022-11-29T13:16:40.623Z,8.68
2022-11-29T13:19:54.419Z,8.74
2022-11-29T13:23:20.749Z,8.80
2022-11-29T13:26:31.555Z,8.62
2022-11-29T13:29:41.448Z,8.70
2022-11-29T13:32:58.380Z,8.71
2022-11-29T13:36:15.518Z,8.77
2022-11-29T13:39:37.014Z,8.82
2022-11-29T13:42:55.413Z,8.88
2022-11-29T13:46:17.334Z,8.96
2022-11-29T13:49:53.169Z,9.00
2022-11-29T13:53:05.693Z,9.05
2022-11-29T13:56:29.633Z,9.08
2022-11-29T13:59:47.279Z,9.08
2022-11-29T14:02:58.386Z,9.10
2022-11-29T14:06:14.443Z,9.08
2022-11-29T14:09:27.900Z,9.05
2022-11-29T14:12:42.529Z,9.06
2022-11-29T14:15:57.540Z,9.03
2022-11-29T14:19:24.319Z,9.02
2022-11-29T14:22:35.227Z,9.02
2022-11-29T14:26:27.875Z,9.02
2022-11-29T14:29:55.534Z,8.99
2022-11-29T14:33:16.104Z,8.97
2022-11-29T14:36:42.691Z,8.95
2022-11-29T14:39:55.412Z,8.96
2022-11-29T14:43:17.450Z,8.98
2022-11-29T14:46:32.774Z,8.98
2022-11-29T14:49:45.551Z,8.99
2022-11-29T14:52:55.807Z,9.01
2022-11-29T14:56:32.342Z,9.02
2022-11-29T14:59:51.316Z,9.03
2022-11-29T15:03:09.864Z,8.96
2022-11-29T15:06:27.771Z,8.96
2022-11-29T15:09:37.751Z,8.98
2022-11-29T15:12:49.884Z,8.97
2022-11-29T15:16:15.147Z,8.94
2022-11-29T15:19:56.771Z,8.95
2022-11-29T15:23:11.753Z,8.91
2022-11-29T15:26:22.423Z,8.93
2022-11-29T15:29:32.989Z,8.91
2022-11-29T15:32:44.662Z,8.80
2022-11-29T15:35:57.543Z,8.77
2022-11-29T15:39:26.179Z,8.70
2022-11-29T15:42:41.005Z,8.71
2022-11-29T15:45:51.998Z,8.55
2022-11-29T15:49:18.063Z,8.56
2022-11-29T15:52:33.822Z,8.56
2022-11-29T15:55:44.174Z,8.58
2022-11-29T15:59:01.260Z,8.58
2022-11-29T16:02:19.201Z,8.57
2022-11-29T16:05:32.855Z,8.54
2022-11-29T16:08:44.073Z,8.57
2022-11-29T16:11:53.882Z,8.57
2022-11-29T16:15:04.086Z,8.53
2022-11-29T16:18:18.921Z,8.50
2022-11-29T16:21:30.398Z,8.50
2022-11-29T16:24:51.990Z,8.41
2022-11-29T16:28:02.053Z,8.41
2022-11-29T16:31:18.074Z,8.43
2022-11-29T16:34:32.904Z,8.47
2022-11-29T16:37:44.429Z,8.46
2022-11-29T16:41:05.672Z,8.42
2022-11-29T16:44:55.131Z,8.35
2022-11-29T16:48:29.051Z,8.36
2022-11-29T16:51:50.495Z,8.36
2022-11-29T16:55:00.726Z,8.37
2022-11-29T16:58:13.524Z,8.36
2022-11-29T17:01:26.131Z,8.37
2022-11-29T17:04:35.912Z,8.34
2022-11-29T17:07:45.860Z,8.29
2022-11-29T17:10:55.518Z,8.27
2022-11-29T17:14:06.559Z,8.23
2022-11-29T17:17:17.801Z,8.19
2022-11-29T17:20:30.494Z,8.15
2022-11-29T17:23:40.169Z,8.14
2022-11-29T17:26:52.663Z,8.12
2022-11-29T17:30:04.800Z,8.08
2022-11-29T17:33:14.616Z,7.99
2022-11-29T17:36:24.217Z,7.94
2022-11-29T17:39:34.020Z,7.87
2022-11-29T17:42:43.897Z,7.77
2022-11-29T17:45:55.034Z,7.71
2022-11-29T17:49:06.953Z,7.62
2022-11-29T17:52:16.680Z,7.51
2022-11-29T17:55:29.489Z,7.43
2022-11-29T17:58:40.337Z,7.33
2022-11-29T18:01:51.448Z,7.15
2022-11-29T18:05:02.315Z,7.10
2022-11-29T18:08:12.292Z,7.07
2022-11-29T18:11:24.814Z,6.99
2022-11-29T18:14:36.720Z,6.91
2022-11-29T18:17:48.245Z,6.82
2022-11-29T18:20:59.472Z,6.72
2022-11-29T18:24:12.722Z,6.61
2022-11-29T18:27:24.426Z,6.56
2022-11-29T18:30:36.129Z,6.46
2022-11-29T18:33:52.839Z,6.40
2022-11-29T18:37:04.325Z,6.35
2022-11-29T18:40:16.605Z,6.27
2022-11-29T18:43:30.184Z,6.23
2022-11-29T18:46:44.281Z,6.17
2022-11-29T18:50:00.193Z,6.13
2022-11-29T18:53:12.278Z,6.08
2022-11-29T18:56:25.735Z,6.07
2022-11-29T18:59:37.272Z,6.06
2022-11-29T19:02:49.324Z,6.03
2022-11-29T19:06:03.786Z,6.01
2022-11-29T19:09:17.214Z,5.96
2022-11-29T19:12:28.915Z,5.96
2022-11-29T19:15:41.553Z,5.95
2022-11-29T19:18:55.872Z,5.95
2022-11-29T19:22:08.850Z,5.89
2022-11-29T19:25:20.509Z,5.87
2022-11-29T19:28:32.413Z,5.86
2022-11-29T19:31:44.201Z,5.86
2022-11-29T19:34:55.834Z,5.85
2022-11-29T19:38:08.827Z,5.85
2022-11-29T19:41:21.395Z,5.85
2022-11-29T19:44:48.223Z,5.86
2022-11-29T19:48:04.091Z,5.86
2022-11-29T19:51:18.152Z,5.80
2022-11-29T19:54:30.781Z,5.70
2022-11-29T19:57:42.110Z,5.65
2022-11-29T20:00:53.772Z,5.61
2022-11-29T20:04:05.836Z,5.62
2022-11-29T20:07:17.149Z,5.64
2022-11-29T20:10:30.015Z,5.65
2022-11-29T20:13:42.484Z,5.61
2022-11-29T20:16:54.676Z,5.60
2022-11-29T20:20:06.649Z,5.62
2022-11-29T20:23:18.427Z,5.58
2022-11-29T20:26:33.501Z,5.55
2022-11-29T20:29:44.948Z,5.59
2022-11-29T20:32:56.532Z,5.58
2022-11-29T20:36:19.386Z,5.59
2022-11-29T20:39:40.074Z,5.56
2022-11-29T20:43:02.781Z,5.49
2022-11-29T20:46:15.826Z,5.48
2022-11-29T20:49:28.708Z,5.47
2022-11-29T20:52:45.468Z,5.46
2022-11-29T20:55:56.794Z,5.43
2022-11-29T20:59:09.331Z,5.44
2022-11-29T21:02:20.537Z,5.46
